Time,TemperatureF,DewpointF,PressureIn,WindDirection,WindDirectionDegrees,WindSpeedMPH,WindSpeedGustMPH,Humidity,HourlyPrecipIn,Conditions,Clouds,dailyrainin,SoftwareType,DateUTC
2013-04-04 00:00:00,50.5,34.0,25.29,NNW,338,11.0,26.0,53,0.00,,,0.00,weatherlink.com 1.10,2013-04-04 06:00:00,
2013-04-04 00:15:00,50.6,33.0,25.30,NW,317,15.0,23.0,52,0.00,,,0.00,weatherlink.com 1.10,2013-04-04 06:15:00,
2013-04-04 00:30:00,50.5,34.0,25.30,WNW,301,13.0,23.0,53,0.00,,,0.00,weatherlink.com 1.10,2013-04-04 06:30:00,
2013-04-04 00:46:00,50.3,34.0,25.30,West,280,16.0,21.0,55,0.00,,,0.00,weatherlink.com 1.10,2013-04-04 06:46:00,
2013-04-04 01:00:00,49.6,35.0,25.31,NNW,329,9.0,25.0,57,0.00,,,0.00,weatherlink.com 1.10,2013-04-04 07:00:00,
2013-04-04 01:15:00,49.4,35.0,25.31,NNW,329,14.0,22.0,58,0.00,,,0.00,weatherlink.com 1.10,2013-04-04 07:15:00,
2013-04-04 01:30:00,49.3,35.0,25.30,NW,323,11.0,21.0,58,0.00,,,0.00,weatherlink.com 1.10,2013-04-04 07:30:00,
2013-04-04 01:45:00,48.8,35.0,25.30,NNW,340,11.0,20.0,59,0.00,,,0.00,weatherlink.com 1.10,2013-04-04 07:45:00,
2013-04-04 02:00:00,47.7,34.0,25.30,NNW,341,9.0,19.0,60,0.00,,,0.00,weatherlink.com 1.10,2013-04-04 08:00:00,
2013-04-04 02:15:00,46.3,34.0,25.30,NNW,347,14.0,15.0,62,0.00,,,0.00,weatherlink.com 1.10,2013-04-04 08:15:00,
2013-04-04 02:30:00,44.9,34.0,25.30,North,355,5.0,15.0,65,0.00,,,0.00,weatherlink.com 1.10,2013-04-04 08:30:00,
2013-04-04 02:45:00,43.7,33.0,25.31,NNE,27,6.0,13.0,67,0.00,,,0.00,weatherlink.com 1.10,2013-04-04 08:45:00,
2013-04-04 03:00:00,42.8,33.0,25.31,NNW,338,7.0,8.0,69,0.00,,,0.00,weatherlink.com 1.10,2013-04-04 09:00:00,
2013-04-04 03:15:00,41.9,33.0,25.31,NE,46,0.0,9.0,70,0.00,,,0.00,weatherlink.com 1.10,2013-04-04 09:15:00,
2013-04-04 03:30:00,41.3,33.0,25.31,SE,125,0.0,4.0,72,0.00,,,0.00,weatherlink.com 1.10,2013-04-04 09:30:00,
2013-04-04 03:45:00,41.0,33.0,25.32,WNW,289,3.0,8.0,72,0.00,,,0.00,weatherlink.com 1.10,2013-04-04 09:45:00,
2013-04-04 04:00:00,40.9,33.0,25.33,WSW,241,4.0,7.0,73,0.00,,,0.00,weatherlink.com 1.10,2013-04-04 10:00:00,
2013-04-04 04:15:00,40.4,32.0,25.33,NNW,340,3.0,7.0,73,0.00,,,0.00,weatherlink.com 1.10,2013-04-04 10:15:00,
2013-04-04 04:30:00,40.0,32.0,25.33,NNW,327,4.0,10.0,74,0.00,,,0.00,weatherlink.com 1.10,2013-04-04 10:30:00,
2013-04-04 04:45:00,39.7,32.0,25.33,NNW,340,4.0,9.0,75,0.00,,,0.00,weatherlink.com 1.10,2013-04-04 10:45:00,
2013-04-04 05:00:00,39.4,32.0,25.34,NW,312,3.0,9.0,76,0.00,,,0.00,weatherlink.com 1.10,2013-04-04 11:00:00,
2013-04-04 05:15:00,39.3,32.0,25.34,NNW,330,3.0,7.0,76,0.00,,,0.00,weatherlink.com 1.10,2013-04-04 11:15:00,
2013-04-04 05:30:00,39.2,32.0,25.35,NW,315,4.0,8.0,76,0.00,,,0.00,weatherlink.com 1.10,2013-04-04 11:30:00,
2013-04-04 05:45:00,38.1,32.0,25.35,NNW,331,1.0,4.0,78,0.00,,,0.00,weatherlink.com 1.10,2013-04-04 11:45:00,
2013-04-04 06:00:00,37.6,32.0,25.35,NNW,333,2.0,5.0,79,0.00,,,0.00,weatherlink.com 1.10,2013-04-04 12:00:00,
2013-04-04 06:15:00,36.7,31.0,25.35,WNW,290,2.0,3.0,80,0.00,,,0.00,weatherlink.com 1.10,2013-04-04 12:15:00,
2013-04-04 06:30:00,36.2,31.0,25.34,NW,306,1.0,2.0,81,0.00,,,0.00,weatherlink.com 1.10,2013-04-04 12:30:00,
2013-04-04 06:45:00,35.8,31.0,25.35,West,263,3.0,4.0,81,0.00,,,0.00,weatherlink.com 1.10,2013-04-04 12:45:00,
2013-04-04 07:00:00,35.6,31.0,25.35,West,273,3.0,4.0,82,0.00,,,0.00,weatherlink.com 1.10,2013-04-04 13:00:00,
2013-04-04 07:15:00,36.2,31.0,25.36,West,271,0.0,5.0,81,0.00,,,0.00,weatherlink.com 1.10,2013-04-04 13:15:00,
2013-04-04 07:31:00,37.5,31.0,25.36,West,267,2.0,4.0,78,0.00,,,0.00,weatherlink.com 1.10,2013-04-04 13:31:00,
2013-04-04 07:46:00,38.8,32.0,25.36,WNW,289,4.0,5.0,77,0.00,,,0.00,weatherlink.com 1.10,2013-04-04 13:46:00,
2013-04-04 08:16:00,42.2,33.0,25.36,NNW,327,4.0,5.0,71,0.00,,,0.00,weatherlink.com 1.10,2013-04-04 14:16:00,
2013-04-04 08:31:00,43.7,34.0,25.35,NW,326,2.0,4.0,69,0.00,,,0.00,weatherlink.com 1.10,2013-04-04 14:31:00,
2013-04-04 09:01:00,47.8,35.0,25.36,NW,323,4.0,5.0,61,0.00,,,0.00,weatherlink.com 1.10,2013-04-04 15:01:00,
2013-04-04 09:16:00,49.5,35.0,25.35,West,274,2.0,6.0,58,0.00,,,0.00,weatherlink.com 1.10,2013-04-04 15:16:00,
2013-04-04 09:31:00,50.8,35.0,25.35,WSW,243,2.0,5.0,55,0.00,,,0.00,weatherlink.com 1.10,2013-04-04 15:31:00,
2013-04-04 09:46:00,54.6,35.0,25.35,WSW,247,1.0,2.0,48,0.00,,,0.00,weatherlink.com 1.10,2013-04-04 15:46:00,
2013-04-04 10:01:00,57.5,36.0,25.34,SW,233,0.0,4.0,44,0.00,,,0.00,weatherlink.com 1.10,2013-04-04 16:01:00,
2013-04-04 10:16:00,56.6,34.0,25.34,SSW,203,3.0,5.0,43,0.00,,,0.00,weatherlink.com 1.10,2013-04-04 16:16:00,
2013-04-04 10:31:00,57.7,34.0,25.34,WNW,297,2.0,6.0,41,0.00,,,0.00,weatherlink.com 1.10,2013-04-04 16:31:00,
2013-04-04 10:46:00,58.8,34.0,25.34,ESE,111,4.0,9.0,39,0.00,,,0.00,weatherlink.com 1.10,2013-04-04 16:46:00,
2013-04-04 11:16:00,62.1,32.0,25.33,SE,127,11.0,11.0,33,0.00,,,0.00,weatherlink.com 1.10,2013-04-04 17:16:00,
2013-04-04 11:32:00,61.3,32.0,25.33,WNW,302,4.0,8.0,33,0.00,,,0.00,weatherlink.com 1.10,2013-04-04 17:32:00,
2013-04-04 11:46:00,63.2,32.0,25.32,NW,323,2.0,10.0,31,0.00,,,0.00,weatherlink.com 1.10,2013-04-04 17:46:00,
2013-04-04 12:01:00,63.8,32.0,25.32,NW,307,5.0,6.0,31,0.00,,,0.00,weatherlink.com 1.10,2013-04-04 18:01:00,
2013-04-04 12:17:00,64.3,31.0,25.31,WSW,240,3.0,5.0,29,0.00,,,0.00,weatherlink.com 1.10,2013-04-04 18:17:00,
2013-04-04 12:32:00,65.7,32.0,25.30,WSW,245,0.0,8.0,28,0.00,,,0.00,weatherlink.com 1.10,2013-04-04 18:32:00,
2013-04-04 12:47:00,66.1,32.0,25.30,North,356,4.0,8.0,28,0.00,,,0.00,weatherlink.com 1.10,2013-04-04 18:47:00,
2013-04-04 13:02:00,65.4,31.0,25.29,SW,231,3.0,11.0,28,0.00,,,0.00,weatherlink.com 1.10,2013-04-04 19:02:00,
2013-04-04 13:17:00,67.1,31.0,25.29,ESE,114,1.0,8.0,26,0.00,,,0.00,weatherlink.com 1.10,2013-04-04 19:17:00,
2013-04-04 13:47:00,65.8,29.0,25.27,SE,141,4.0,7.0,25,0.00,,,0.00,weatherlink.com 1.10,2013-04-04 19:47:00,
2013-04-04 14:02:00,66.7,30.0,25.27,WSW,256,5.0,8.0,25,0.00,,,0.00,weatherlink.com 1.10,2013-04-04 20:02:00,
2013-04-04 14:17:00,68.0,30.0,25.26,NNE,22,7.0,10.0,24,0.00,,,0.00,weatherlink.com 1.10,2013-04-04 20:17:00,
2013-04-04 14:32:00,67.3,30.0,25.26,NNW,338,3.0,6.0,25,0.00,,,0.00,weatherlink.com 1.10,2013-04-04 20:32:00,
2013-04-04 14:47:00,65.9,29.0,25.26,NW,316,0.0,14.0,25,0.00,,,0.00,weatherlink.com 1.10,2013-04-04 20:47:00,
2013-04-04 15:02:00,67.9,30.0,25.25,East,79,0.0,4.0,24,0.00,,,0.00,weatherlink.com 1.10,2013-04-04 21:02:00,
2013-04-04 15:17:00,69.2,30.0,25.24,SE,139,2.0,7.0,23,0.00,,,0.00,weatherlink.com 1.10,2013-04-04 21:17:00,
2013-04-04 15:32:00,67.8,29.0,25.24,NE,46,4.0,8.0,23,0.00,,,0.00,weatherlink.com 1.10,2013-04-04 21:32:00,
2013-04-04 15:47:00,68.8,31.0,25.24,ENE,68,7.0,15.0,25,0.00,,,0.00,weatherlink.com 1.10,2013-04-04 21:47:00,
2013-04-04 16:02:00,66.9,31.0,25.23,ESE,121,7.0,9.0,26,0.00,,,0.00,weatherlink.com 1.10,2013-04-04 22:02:00,
2013-04-04 16:17:00,65.2,30.0,25.23,SE,141,6.0,16.0,27,0.00,,,0.00,weatherlink.com 1.10,2013-04-04 22:17:00,
2013-04-04 16:32:00,65.9,30.0,25.23,NE,34,4.0,6.0,26,0.00,,,0.00,weatherlink.com 1.10,2013-04-04 22:32:00,
2013-04-04 16:47:00,66.4,30.0,25.22,ESE,114,5.0,9.0,26,0.00,,,0.00,weatherlink.com 1.10,2013-04-04 22:47:00,
2013-04-04 17:02:00,66.6,31.0,25.22,SW,232,5.0,10.0,26,0.00,,,0.00,weatherlink.com 1.10,2013-04-04 23:02:00,
2013-04-04 17:17:00,66.7,31.0,25.22,SSE,149,5.0,9.0,26,0.00,,,0.00,weatherlink.com 1.10,2013-04-04 23:17:00,
2013-04-04 17:32:00,66.3,30.0,25.22,SE,125,6.0,13.0,26,0.00,,,0.00,weatherlink.com 1.10,2013-04-04 23:32:00,
2013-04-04 17:47:00,65.4,30.0,25.22,SSW,200,5.0,15.0,27,0.00,,,0.00,weatherlink.com 1.10,2013-04-04 23:47:00,
2013-04-04 18:02:00,65.3,30.0,25.21,SSW,193,6.0,10.0,27,0.00,,,0.00,weatherlink.com 1.10,2013-04-05 00:02:00,
2013-04-04 18:17:00,65.0,31.0,25.21,SE,129,13.0,14.0,28,0.00,,,0.00,weatherlink.com 1.10,2013-04-05 00:17:00,
2013-04-04 18:32:00,64.6,31.0,25.21,ESE,119,10.0,15.0,29,0.00,,,0.00,weatherlink.com 1.10,2013-04-05 00:32:00,
2013-04-04 18:47:00,63.0,31.0,25.21,SE,127,13.0,13.0,30,0.00,,,0.00,weatherlink.com 1.10,2013-04-05 00:47:00,
2013-04-04 19:02:00,61.0,32.0,25.22,SSW,194,2.0,12.0,33,0.00,,,0.00,weatherlink.com 1.10,2013-04-05 01:02:00,
2013-04-04 19:17:00,59.3,31.0,25.22,ESE,123,9.0,13.0,35,0.00,,,0.00,weatherlink.com 1.10,2013-04-05 01:17:00,
2013-04-04 19:32:00,57.7,31.0,25.22,SE,124,2.0,10.0,36,0.00,,,0.00,weatherlink.com 1.10,2013-04-05 01:32:00,
2013-04-04 19:47:00,56.2,31.0,25.21,SE,131,5.0,7.0,38,0.00,,,0.00,weatherlink.com 1.10,2013-04-05 01:47:00,
2013-04-04 20:02:00,55.1,31.0,25.22,SE,131,3.0,9.0,40,0.00,,,0.00,weatherlink.com 1.10,2013-04-05 02:02:00,
2013-04-04 20:17:00,53.4,31.0,25.22,SE,135,5.0,11.0,42,0.00,,,0.00,weatherlink.com 1.10,2013-04-05 02:17:00,
2013-04-04 20:32:00,52.3,32.0,25.22,ESE,115,10.0,13.0,46,0.00,,,0.00,weatherlink.com 1.10,2013-04-05 02:32:00,
2013-04-04 20:47:00,52.3,32.0,25.23,ESE,115,6.0,13.0,47,0.00,,,0.00,weatherlink.com 1.10,2013-04-05 02:47:00,
2013-04-04 21:02:00,51.8,32.0,25.23,ESE,118,6.0,10.0,47,0.00,,,0.00,weatherlink.com 1.10,2013-04-05 03:02:00,
2013-04-04 21:17:00,52.1,32.0,25.23,ESE,120,8.0,15.0,46,0.00,,,0.00,weatherlink.com 1.10,2013-04-05 03:17:00,
2013-04-04 21:33:00,51.9,32.0,25.23,SE,136,9.0,13.0,46,0.00,,,0.00,weatherlink.com 1.10,2013-04-05 03:33:00,
2013-04-04 21:48:00,51.2,31.0,25.23,SE,145,7.0,11.0,47,0.00,,,0.00,weatherlink.com 1.10,2013-04-05 03:48:00,
2013-04-04 22:03:00,51.4,32.0,25.23,WSW,246,7.0,14.0,47,0.00,,,0.00,weatherlink.com 1.10,2013-04-05 04:03:00,
2013-04-04 22:18:00,51.0,32.0,25.23,SSW,201,6.0,11.0,48,0.00,,,0.00,weatherlink.com 1.10,2013-04-05 04:18:00,
2013-04-04 22:33:00,50.6,32.0,25.23,SSE,159,9.0,14.0,49,0.00,,,0.00,weatherlink.com 1.10,2013-04-05 04:33:00,
2013-04-04 22:48:00,50.1,31.0,25.23,SSE,152,12.0,17.0,49,0.00,,,0.00,weatherlink.com 1.10,2013-04-05 04:48:00,
2013-04-04 23:03:00,50.0,32.0,25.22,SSW,195,10.0,18.0,50,0.00,,,0.00,weatherlink.com 1.10,2013-04-05 05:03:00,
2013-04-04 23:18:00,49.3,32.0,25.22,SSE,153,10.0,18.0,51,0.00,,,0.00,weatherlink.com 1.10,2013-04-05 05:18:00,
2013-04-04 23:33:00,49.2,32.0,25.22,SSW,205,14.0,15.0,51,0.00,,,0.00,weatherlink.com 1.10,2013-04-05 05:33:00,